sensor_id;sensor_type;location;lat;lon;timestamp;temperature;humidity
77592;DHT22;66891;46.884;17.436;2023-06-14T00:01:45;11.81;84.56
77592;DHT22;66891;46.884;17.436;2023-06-14T00:04:16;11.90;83.00
77592;DHT22;66891;46.884;17.436;2023-06-14T00:06:44;11.81;83.31
77592;DHT22;66891;46.884;17.436;2023-06-14T00:09:13;11.58;83.68
77592;DHT22;66891;46.884;17.436;2023-06-14T00:11:41;11.50;84.13
77592;DHT22;66891;46.884;17.436;2023-06-14T00:14:08;11.62;84.20
77592;DHT22;66891;46.884;17.436;2023-06-14T00:16:36;11.58;84.14
77592;DHT22;66891;46.884;17.436;2023-06-14T00:19:04;11.79;84.64
77592;DHT22;66891;46.884;17.436;2023-06-14T00:21:31;11.95;84.89
77592;DHT22;66891;46.884;17.436;2023-06-14T00:23:59;11.89;84.74
77592;DHT22;66891;46.884;17.436;2023-06-14T00:26:28;11.82;84.18
77592;DHT22;66891;46.884;17.436;2023-06-14T00:28:55;11.89;84.94
77592;DHT22;66891;46.884;17.436;2023-06-14T00:31:23;12.06;84.58
77592;DHT22;66891;46.884;17.436;2023-06-14T00:33:51;12.16;84.39
77592;DHT22;66891;46.884;17.436;2023-06-14T00:36:18;12.10;85.44
77592;DHT22;66891;46.884;17.436;2023-06-14T00:38:46;12.22;84.90
77592;DHT22;66891;46.884;17.436;2023-06-14T00:41:13;12.19;84.76
77592;DHT22;66891;46.884;17.436;2023-06-14T00:43:42;12.12;84.59
77592;DHT22;66891;46.884;17.436;2023-06-14T00:46:09;11.93;84.88
77592;DHT22;66891;46.884;17.436;2023-06-14T00:48:37;11.89;85.05
77592;DHT22;66891;46.884;17.436;2023-06-14T00:51:05;11.99;84.24
77592;DHT22;66891;46.884;17.436;2023-06-14T00:53:33;11.97;84.05
77592;DHT22;66891;46.884;17.436;2023-06-14T00:56:03;11.97;83.45
77592;DHT22;66891;46.884;17.436;2023-06-14T00:58:30;12.02;83.12
77592;DHT22;66891;46.884;17.436;2023-06-14T01:01:00;11.76;83.56
77592;DHT22;66891;46.884;17.436;2023-06-14T01:03:29;11.69;84.41
77592;DHT22;66891;46.884;17.436;2023-06-14T01:06:05;11.66;83.96
77592;DHT22;66891;46.884;17.436;2023-06-14T01:08:43;11.81;83.66
77592;DHT22;66891;46.884;17.436;2023-06-14T01:11:18;11.57;84.99
77592;DHT22;66891;46.884;17.436;2023-06-14T01:13:46;11.39;84.65
77592;DHT22;66891;46.884;17.436;2023-06-14T01:16:16;11.42;84.95
77592;DHT22;66891;46.884;17.436;2023-06-14T01:18:45;11.54;85.05
77592;DHT22;66891;46.884;17.436;2023-06-14T01:21:21;11.51;84.46
77592;DHT22;66891;46.884;17.436;2023-06-14T01:23:50;11.62;84.61
77592;DHT22;66891;46.884;17.436;2023-06-14T01:26:22;11.54;84.97
77592;DHT22;66891;46.884;17.436;2023-06-14T01:28:51;11.47;84.40
77592;DHT22;66891;46.884;17.436;2023-06-14T01:31:21;11.41;84.63
77592;DHT22;66891;46.884;17.436;2023-06-14T01:33:49;11.51;85.01
77592;DHT22;66891;46.884;17.436;2023-06-14T01:36:18;11.51;85.13
77592;DHT22;66891;46.884;17.436;2023-06-14T01:38:47;11.38;85.21
77592;DHT22;66891;46.884;17.436;2023-06-14T01:41:20;11.71;85.14
77592;DHT22;66891;46.884;17.436;2023-06-14T01:43:48;11.64;84.99
77592;DHT22;66891;46.884;17.436;2023-06-14T01:46:17;11.59;85.18
77592;DHT22;66891;46.884;17.436;2023-06-14T01:48:44;11.54;84.69
77592;DHT22;66891;46.884;17.436;2023-06-14T01:51:12;11.42;85.60
77592;DHT22;66891;46.884;17.436;2023-06-14T01:53:39;11.44;85.62
77592;DHT22;66891;46.884;17.436;2023-06-14T01:56:07;11.41;85.72
77592;DHT22;66891;46.884;17.436;2023-06-14T01:58:35;11.41;85.90
77592;DHT22;66891;46.884;17.436;2023-06-14T02:01:03;11.41;85.99
77592;DHT22;66891;46.884;17.436;2023-06-14T02:03:30;11.45;85.50
77592;DHT22;66891;46.884;17.436;2023-06-14T02:05:58;11.57;85.64
77592;DHT22;66891;46.884;17.436;2023-06-14T02:08:25;11.59;85.37
77592;DHT22;66891;46.884;17.436;2023-06-14T02:10:53;11.64;85.84
77592;DHT22;66891;46.884;17.436;2023-06-14T02:13:20;11.72;85.93
77592;DHT22;66891;46.884;17.436;2023-06-14T02:15:49;11.75;85.12
77592;DHT22;66891;46.884;17.436;2023-06-14T02:18:20;11.76;85.01
77592;DHT22;66891;46.884;17.436;2023-06-14T02:20:50;12.03;84.13
77592;DHT22;66891;46.884;17.436;2023-06-14T02:23:17;12.09;84.24
77592;DHT22;66891;46.884;17.436;2023-06-14T02:25:45;11.93;85.08
77592;DHT22;66891;46.884;17.436;2023-06-14T02:28:13;12.03;84.92
77592;DHT22;66891;46.884;17.436;2023-06-14T02:30:40;11.93;85.44
77592;DHT22;66891;46.884;17.436;2023-06-14T02:33:09;11.99;84.88
77592;DHT22;66891;46.884;17.436;2023-06-14T02:35:40;11.96;84.89
77592;DHT22;66891;46.884;17.436;2023-06-14T02:38:08;11.85;85.15
77592;DHT22;66891;46.884;17.436;2023-06-14T02:40:35;11.76;85.40
77592;DHT22;66891;46.884;17.436;2023-06-14T02:43:03;11.90;86.00
77592;DHT22;66891;46.884;17.436;2023-06-14T02:45:30;11.97;85.77
77592;DHT22;66891;46.884;17.436;2023-06-14T02:47:57;11.86;85.16
77592;DHT22;66891;46.884;17.436;2023-06-14T02:50:26;11.85;84.91
77592;DHT22;66891;46.884;17.436;2023-06-14T02:52:55;11.79;84.63
77592;DHT22;66891;46.884;17.436;2023-06-14T02:55:24;11.75;85.22
77592;DHT22;66891;46.884;17.436;2023-06-14T02:57:51;11.79;85.34
77592;DHT22;66891;46.884;17.436;2023-06-14T03:00:20;11.90;84.19
77592;DHT22;66891;46.884;17.436;2023-06-14T03:02:47;11.89;84.26
77592;DHT22;66891;46.884;17.436;2023-06-14T03:05:15;11.85;83.94
77592;DHT22;66891;46.884;17.436;2023-06-14T03:07:44;11.58;85.03
77592;DHT22;66891;46.884;17.436;2023-06-14T03:10:12;11.42;85.97
77592;DHT22;66891;46.884;17.436;2023-06-14T03:12:40;11.35;85.47
77592;DHT22;66891;46.884;17.436;2023-06-14T03:15:09;11.31;85.61
77592;DHT22;66891;46.884;17.436;2023-06-14T03:17:38;11.34;85.77
77592;DHT22;66891;46.884;17.436;2023-06-14T03:20:07;11.31;86.16
77592;DHT22;66891;46.884;17.436;2023-06-14T03:22:35;11.68;85.19
77592;DHT22;66891;46.884;17.436;2023-06-14T03:25:05;11.55;85.01
77592;DHT22;66891;46.884;17.436;2023-06-14T03:27:33;11.44;85.18
77592;DHT22;66891;46.884;17.436;2023-06-14T03:30:00;11.42;85.28
77592;DHT22;66891;46.884;17.436;2023-06-14T03:32:27;11.21;86.30
77592;DHT22;66891;46.884;17.436;2023-06-14T03:34:55;11.45;86.16
77592;DHT22;66891;46.884;17.436;2023-06-14T03:37:22;11.68;85.90
77592;DHT22;66891;46.884;17.436;2023-06-14T03:39:50;11.79;85.24
77592;DHT22;66891;46.884;17.436;2023-06-14T03:42:19;11.83;85.39
77592;DHT22;66891;46.884;17.436;2023-06-14T03:44:46;12.17;84.31
77592;DHT22;66891;46.884;17.436;2023-06-14T03:47:13;12.34;84.79
77592;DHT22;66891;46.884;17.436;2023-06-14T03:49:40;12.26;84.68
77592;DHT22;66891;46.884;17.436;2023-06-14T03:52:08;12.00;85.12
77592;DHT22;66891;46.884;17.436;2023-06-14T03:54:35;12.31;84.29
77592;DHT22;66891;46.884;17.436;2023-06-14T03:57:06;12.60;84.03
77592;DHT22;66891;46.884;17.436;2023-06-14T03:59:35;12.60;84.42
77592;DHT22;66891;46.884;17.436;2023-06-14T04:02:02;12.47;85.16
77592;DHT22;66891;46.884;17.436;2023-06-14T04:04:29;12.61;84.89
77592;DHT22;66891;46.884;17.436;2023-06-14T04:06:57;12.78;84.88
77592;DHT22;66891;46.884;17.436;2023-06-14T04:09:25;12.78;85.52
77592;DHT22;66891;46.884;17.436;2023-06-14T04:11:52;12.89;83.88
77592;DHT22;66891;46.884;17.436;2023-06-14T04:14:20;12.72;84.99
77592;DHT22;66891;46.884;17.436;2023-06-14T04:16:49;12.74;85.65
77592;DHT22;66891;46.884;17.436;2023-06-14T04:19:16;12.84;84.25
77592;DHT22;66891;46.884;17.436;2023-06-14T04:21:44;12.79;85.40
77592;DHT22;66891;46.884;17.436;2023-06-14T04:24:12;13.03;84.76
77592;DHT22;66891;46.884;17.436;2023-06-14T04:26:41;13.27;83.99
77592;DHT22;66891;46.884;17.436;2023-06-14T04:29:12;13.36;82.95
77592;DHT22;66891;46.884;17.436;2023-06-14T04:31:43;13.32;83.05
77592;DHT22;66891;46.884;17.436;2023-06-14T04:34:13;13.22;84.59
77592;DHT22;66891;46.884;17.436;2023-06-14T04:36:43;13.24;84.19
77592;DHT22;66891;46.884;17.436;2023-06-14T04:39:20;13.47;82.87
77592;DHT22;66891;46.884;17.436;2023-06-14T04:41:48;13.58;82.83
77592;DHT22;66891;46.884;17.436;2023-06-14T04:44:19;13.60;83.16
77592;DHT22;66891;46.884;17.436;2023-06-14T04:46:47;13.54;83.59
77592;DHT22;66891;46.884;17.436;2023-06-14T04:49:16;13.98;82.06
77592;DHT22;66891;46.884;17.436;2023-06-14T04:51:45;14.12;83.28
77592;DHT22;66891;46.884;17.436;2023-06-14T04:54:13;14.15;83.36
77592;DHT22;66891;46.884;17.436;2023-06-14T04:56:41;14.19;83.85
77592;DHT22;66891;46.884;17.436;2023-06-14T04:59:09;14.37;83.10
77592;DHT22;66891;46.884;17.436;2023-06-14T05:01:38;14.41;82.62
77592;DHT22;66891;46.884;17.436;2023-06-14T05:04:06;14.63;82.83
77592;DHT22;66891;46.884;17.436;2023-06-14T05:06:35;14.81;81.82
77592;DHT22;66891;46.884;17.436;2023-06-14T05:09:03;14.99;81.29
77592;DHT22;66891;46.884;17.436;2023-06-14T05:11:30;14.89;82.14
77592;DHT22;66891;46.884;17.436;2023-06-14T05:13:58;15.05;82.76
77592;DHT22;66891;46.884;17.436;2023-06-14T05:16:25;15.29;80.69
77592;DHT22;66891;46.884;17.436;2023-06-14T05:18:56;15.28;80.46
77592;DHT22;66891;46.884;17.436;2023-06-14T05:21:24;15.07;81.77
77592;DHT22;66891;46.884;17.436;2023-06-14T05:23:53;15.11;82.10
77592;DHT22;66891;46.884;17.436;2023-06-14T05:26:21;15.18;81.87
77592;DHT22;66891;46.884;17.436;2023-06-14T05:28:50;15.26;80.31
77592;DHT22;66891;46.884;17.436;2023-06-14T05:31:19;15.28;81.14
77592;DHT22;66891;46.884;17.436;2023-06-14T05:33:47;15.42;80.59
77592;DHT22;66891;46.884;17.436;2023-06-14T05:36:14;15.49;80.69
77592;DHT22;66891;46.884;17.436;2023-06-14T05:38:41;15.46;80.52
77592;DHT22;66891;46.884;17.436;2023-06-14T05:41:10;15.46;81.26
77592;DHT22;66891;46.884;17.436;2023-06-14T05:43:38;15.67;82.38
77592;DHT22;66891;46.884;17.436;2023-06-14T05:46:05;15.46;84.32
77592;DHT22;66891;46.884;17.436;2023-06-14T05:48:33;15.29;84.19
77592;DHT22;66891;46.884;17.436;2023-06-14T05:51:03;15.34;83.74
77592;DHT22;66891;46.884;17.436;2023-06-14T05:53:30;15.52;83.43
77592;DHT22;66891;46.884;17.436;2023-06-14T05:55:59;15.59;83.48
77592;DHT22;66891;46.884;17.436;2023-06-14T05:58:28;15.83;83.31
77592;DHT22;66891;46.884;17.436;2023-06-14T06:00:55;15.94;82.48
77592;DHT22;66891;46.884;17.436;2023-06-14T06:03:23;15.98;81.42
77592;DHT22;66891;46.884;17.436;2023-06-14T06:05:50;15.94;81.68
77592;DHT22;66891;46.884;17.436;2023-06-14T06:08:18;15.98;82.46
77592;DHT22;66891;46.884;17.436;2023-06-14T06:10:45;16.01;82.48
77592;DHT22;66891;46.884;17.436;2023-06-14T06:13:12;16.20;82.33
77592;DHT22;66891;46.884;17.436;2023-06-14T06:15:41;16.39;81.17
77592;DHT22;66891;46.884;17.436;2023-06-14T06:18:08;16.63;79.94
77592;DHT22;66891;46.884;17.436;2023-06-14T06:20:36;16.56;79.84
77592;DHT22;66891;46.884;17.436;2023-06-14T06:23:03;16.41;80.21
77592;DHT22;66891;46.884;17.436;2023-06-14T06:25:31;16.59;80.14
77592;DHT22;66891;46.884;17.436;2023-06-14T06:27:58;16.73;78.98
77592;DHT22;66891;46.884;17.436;2023-06-14T06:30:26;16.91;78.28
77592;DHT22;66891;46.884;17.436;2023-06-14T06:32:55;16.90;78.28
77592;DHT22;66891;46.884;17.436;2023-06-14T06:35:25;16.86;78.52
77592;DHT22;66891;46.884;17.436;2023-06-14T06:37:53;16.87;79.28
77592;DHT22;66891;46.884;17.436;2023-06-14T06:40:20;16.80;80.01
77592;DHT22;66891;46.884;17.436;2023-06-14T06:42:47;17.06;78.76
77592;DHT22;66891;46.884;17.436;2023-06-14T06:45:15;17.03;78.49
77592;DHT22;66891;46.884;17.436;2023-06-14T06:47:43;16.97;79.63
77592;DHT22;66891;46.884;17.436;2023-06-14T06:50:12;16.99;81.81
77592;DHT22;66891;46.884;17.436;2023-06-14T06:52:39;17.32;78.66
77592;DHT22;66891;46.884;17.436;2023-06-14T06:55:07;17.69;78.38
77592;DHT22;66891;46.884;17.436;2023-06-14T06:57:35;18.11;77.64
77592;DHT22;66891;46.884;17.436;2023-06-14T07:00:04;18.43;75.94
77592;DHT22;66891;46.884;17.436;2023-06-14T07:02:35;18.57;76.03
77592;DHT22;66891;46.884;17.436;2023-06-14T07:05:04;18.57;75.43
77592;DHT22;66891;46.884;17.436;2023-06-14T07:07:36;18.72;74.83
77592;DHT22;66891;46.884;17.436;2023-06-14T07:10:04;18.75;75.15
77592;DHT22;66891;46.884;17.436;2023-06-14T07:12:32;18.73;73.77
77592;DHT22;66891;46.884;17.436;2023-06-14T07:15:01;18.85;73.64
77592;DHT22;66891;46.884;17.436;2023-06-14T07:17:33;18.95;73.97
77592;DHT22;66891;46.884;17.436;2023-06-14T07:20:05;18.79;74.44
77592;DHT22;66891;46.884;17.436;2023-06-14T07:22:38;18.84;75.10
77592;DHT22;66891;46.884;17.436;2023-06-14T07:25:08;18.93;75.08
77592;DHT22;66891;46.884;17.436;2023-06-14T07:27:35;19.06;74.15
77592;DHT22;66891;46.884;17.436;2023-06-14T07:30:03;19.24;73.97
77592;DHT22;66891;46.884;17.436;2023-06-14T07:32:32;19.47;73.13
77592;DHT22;66891;46.884;17.436;2023-06-14T07:34:59;19.57;69.86
77592;DHT22;66891;46.884;17.436;2023-06-14T07:37:28;19.60;69.21
77592;DHT22;66891;46.884;17.436;2023-06-14T07:39:57;19.81;70.26
77592;DHT22;66891;46.884;17.436;2023-06-14T07:42:25;19.98;69.65
77592;DHT22;66891;46.884;17.436;2023-06-14T07:44:52;19.82;68.23
77592;DHT22;66891;46.884;17.436;2023-06-14T07:47:21;19.78;67.08
77592;DHT22;66891;46.884;17.436;2023-06-14T07:49:49;19.92;66.08
77592;DHT22;66891;46.884;17.436;2023-06-14T07:52:26;20.36;68.51
77592;DHT22;66891;46.884;17.436;2023-06-14T07:54:53;20.60;66.36
77592;DHT22;66891;46.884;17.436;2023-06-14T07:57:22;20.56;66.17
77592;DHT22;66891;46.884;17.436;2023-06-14T07:59:51;20.39;66.25
77592;DHT22;66891;46.884;17.436;2023-06-14T08:02:19;20.44;68.13
77592;DHT22;66891;46.884;17.436;2023-06-14T08:04:49;20.19;66.98
77592;DHT22;66891;46.884;17.436;2023-06-14T08:07:17;20.09;66.90
77592;DHT22;66891;46.884;17.436;2023-06-14T08:09:44;19.88;67.64
77592;DHT22;66891;46.884;17.436;2023-06-14T08:12:12;19.85;68.40
77592;DHT22;66891;46.884;17.436;2023-06-14T08:14:42;20.33;67.53
77592;DHT22;66891;46.884;17.436;2023-06-14T08:17:09;20.43;66.52
77592;DHT22;66891;46.884;17.436;2023-06-14T08:19:38;20.47;66.41
77592;DHT22;66891;46.884;17.436;2023-06-14T08:22:06;20.51;65.63
77592;DHT22;66891;46.884;17.436;2023-06-14T08:24:33;20.37;66.41
77592;DHT22;66891;46.884;17.436;2023-06-14T08:27:01;20.61;67.78
77592;DHT22;66891;46.884;17.436;2023-06-14T08:29:28;20.70;66.41
77592;DHT22;66891;46.884;17.436;2023-06-14T08:32:00;20.58;67.17
77592;DHT22;66891;46.884;17.436;2023-06-14T08:34:27;20.44;66.26
77592;DHT22;66891;46.884;17.436;2023-06-14T08:36:54;20.50;65.61
77592;DHT22;66891;46.884;17.436;2023-06-14T08:39:22;20.70;65.81
77592;DHT22;66891;46.884;17.436;2023-06-14T08:41:50;21.12;66.92
77592;DHT22;66891;46.884;17.436;2023-06-14T08:44:19;21.36;65.64
77592;DHT22;66891;46.884;17.436;2023-06-14T08:46:47;21.83;63.74
77592;DHT22;66891;46.884;17.436;2023-06-14T08:49:17;21.84;64.72
77592;DHT22;66891;46.884;17.436;2023-06-14T08:51:44;21.69;61.02
77592;DHT22;66891;46.884;17.436;2023-06-14T08:57:10;21.06;64.27
77592;DHT22;66891;46.884;17.436;2023-06-14T08:59:46;21.29;62.71
77592;DHT22;66891;46.884;17.436;2023-06-14T09:02:17;21.26;62.83
77592;DHT22;66891;46.884;17.436;2023-06-14T09:04:48;21.39;64.69
77592;DHT22;66891;46.884;17.436;2023-06-14T09:07:16;21.76;61.97
77592;DHT22;66891;46.884;17.436;2023-06-14T09:09:44;21.96;60.67
77592;DHT22;66891;46.884;17.436;2023-06-14T09:12:32;22.19;59.64
77592;DHT22;66891;46.884;17.436;2023-06-14T09:15:00;22.46;61.41
77592;DHT22;66891;46.884;17.436;2023-06-14T09:17:28;22.70;56.96
77592;DHT22;66891;46.884;17.436;2023-06-14T09:20:02;22.82;54.43
77592;DHT22;66891;46.884;17.436;2023-06-14T09:22:44;23.10;52.59
77592;DHT22;66891;46.884;17.436;2023-06-14T09:25:41;23.12;54.01
77592;DHT22;66891;46.884;17.436;2023-06-14T09:28:15;23.38;56.90
77592;DHT22;66891;46.884;17.436;2023-06-14T09:30:48;23.54;55.08
77592;DHT22;66891;46.884;17.436;2023-06-14T09:33:19;23.62;54.85
77592;DHT22;66891;46.884;17.436;2023-06-14T09:35:52;23.65;53.33
77592;DHT22;66891;46.884;17.436;2023-06-14T09:38:22;23.86;54.64
77592;DHT22;66891;46.884;17.436;2023-06-14T09:40:50;24.16;52.35
77592;DHT22;66891;46.884;17.436;2023-06-14T09:43:19;24.06;51.47
77592;DHT22;66891;46.884;17.436;2023-06-14T09:45:50;23.89;51.49
77592;DHT22;66891;46.884;17.436;2023-06-14T09:48:17;23.72;53.32
77592;DHT22;66891;46.884;17.436;2023-06-14T09:50:46;23.63;52.12
77592;DHT22;66891;46.884;17.436;2023-06-14T09:53:22;23.45;52.41
77592;DHT22;66891;46.884;17.436;2023-06-14T09:55:52;22.91;51.59
77592;DHT22;66891;46.884;17.436;2023-06-14T09:58:57;22.59;52.31
77592;DHT22;66891;46.884;17.436;2023-06-14T10:01:35;22.72;53.92
77592;DHT22;66891;46.884;17.436;2023-06-14T10:04:22;22.70;51.60
77592;DHT22;66891;46.884;17.436;2023-06-14T10:07:26;22.90;51.99
77592;DHT22;66891;46.884;17.436;2023-06-14T10:10:04;23.14;53.75
77592;DHT22;66891;46.884;17.436;2023-06-14T10:12:33;23.31;53.57
77592;DHT22;66891;46.884;17.436;2023-06-14T10:15:02;23.03;52.38
77592;DHT22;66891;46.884;17.436;2023-06-14T10:17:35;22.44;53.94
77592;DHT22;66891;46.884;17.436;2023-06-14T10:20:19;22.51;56.75
77592;DHT22;66891;46.884;17.436;2023-06-14T10:22:51;22.18;56.82
77592;DHT22;66891;46.884;17.436;2023-06-14T10:25:28;21.83;56.41
77592;DHT22;66891;46.884;17.436;2023-06-14T10:28:08;21.71;60.91
77592;DHT22;66891;46.884;17.436;2023-06-14T10:31:05;21.86;62.36
77592;DHT22;66891;46.884;17.436;2023-06-14T10:33:33;21.38;63.84
77592;DHT22;66891;46.884;17.436;2023-06-14T10:36:24;21.32;63.64
77592;DHT22;66891;46.884;17.436;2023-06-14T10:39:06;21.26;64.72
77592;DHT22;66891;46.884;17.436;2023-06-14T10:41:38;20.91;67.74
77592;DHT22;66891;46.884;17.436;2023-06-14T10:47:11;20.60;68.66
77592;DHT22;66891;46.884;17.436;2023-06-14T10:49:50;20.33;69.27
77592;DHT22;66891;46.884;17.436;2023-06-14T10:52:22;20.18;70.02
77592;DHT22;66891;46.884;17.436;2023-06-14T10:55:09;20.05;69.79
77592;DHT22;66891;46.884;17.436;2023-06-14T10:57:52;20.06;70.45
77592;DHT22;66891;46.884;17.436;2023-06-14T11:00:24;20.05;71.10
77592;DHT22;66891;46.884;17.436;2023-06-14T11:03:36;20.15;71.47
77592;DHT22;66891;46.884;17.436;2023-06-14T11:06:51;19.75;71.07
77592;DHT22;66891;46.884;17.436;2023-06-14T11:10:01;20.13;70.60
77592;DHT22;66891;46.884;17.436;2023-06-14T11:12:35;20.40;70.53
77592;DHT22;66891;46.884;17.436;2023-06-14T11:15:07;19.75;71.65
77592;DHT22;66891;46.884;17.436;2023-06-14T11:17:34;19.58;72.08
77592;DHT22;66891;46.884;17.436;2023-06-14T11:20:08;19.58;72.50
77592;DHT22;66891;46.884;17.436;2023-06-14T11:22:50;20.02;71.66
77592;DHT22;66891;46.884;17.436;2023-06-14T11:25:26;19.64;72.63
77592;DHT22;66891;46.884;17.436;2023-06-14T11:28:01;19.28;73.09
77592;DHT22;66891;46.884;17.436;2023-06-14T11:30:33;19.22;73.91
77592;DHT22;66891;46.884;17.436;2023-06-14T11:33:01;19.30;73.57
77592;DHT22;66891;46.884;17.436;2023-06-14T11:35:29;19.71;72.52
77592;DHT22;66891;46.884;17.436;2023-06-14T11:37:56;19.26;72.19
77592;DHT22;66891;46.884;17.436;2023-06-14T11:40:25;19.10;73.32
77592;DHT22;66891;46.884;17.436;2023-06-14T11:42:58;19.13;72.09
77592;DHT22;66891;46.884;17.436;2023-06-14T11:45:27;19.06;72.58
77592;DHT22;66891;46.884;17.436;2023-06-14T11:47:57;18.72;72.40
77592;DHT22;66891;46.884;17.436;2023-06-14T11:50:27;18.69;73.16
77592;DHT22;66891;46.884;17.436;2023-06-14T11:52:55;18.51;73.89
77592;DHT22;66891;46.884;17.436;2023-06-14T11:55:23;18.61;73.81
77592;DHT22;66891;46.884;17.436;2023-06-14T11:57:51;18.65;73.70
77592;DHT22;66891;46.884;17.436;2023-06-14T12:00:25;18.16;74.59
77592;DHT22;66891;46.884;17.436;2023-06-14T12:02:56;18.09;75.86
77592;DHT22;66891;46.884;17.436;2023-06-14T12:05:24;18.31;75.54
77592;DHT22;66891;46.884;17.436;2023-06-14T12:07:58;18.20;75.77
77592;DHT22;66891;46.884;17.436;2023-06-14T12:10:28;18.13;75.71
77592;DHT22;66891;46.884;17.436;2023-06-14T12:12:59;17.86;76.12
77592;DHT22;66891;46.884;17.436;2023-06-14T12:15:28;17.80;76.60
77592;DHT22;66891;46.884;17.436;2023-06-14T12:18:15;17.90;76.85
77592;DHT22;66891;46.884;17.436;2023-06-14T12:20:50;17.82;76.96
77592;DHT22;66891;46.884;17.436;2023-06-14T12:23:20;17.99;77.47
77592;DHT22;66891;46.884;17.436;2023-06-14T12:25:49;17.89;77.58
77592;DHT22;66891;46.884;17.436;2023-06-14T12:28:16;17.76;78.73
77592;DHT22;66891;46.884;17.436;2023-06-14T12:30:44;17.85;79.05
77592;DHT22;66891;46.884;17.436;2023-06-14T12:33:12;17.72;79.88
77592;DHT22;66891;46.884;17.436;2023-06-14T12:35:40;17.68;81.12
77592;DHT22;66891;46.884;17.436;2023-06-14T12:38:08;17.80;81.02
77592;DHT22;66891;46.884;17.436;2023-06-14T12:40:35;17.82;80.35
77592;DHT22;66891;46.884;17.436;2023-06-14T12:43:04;17.93;79.50
77592;DHT22;66891;46.884;17.436;2023-06-14T12:45:32;17.78;78.50
77592;DHT22;66891;46.884;17.436;2023-06-14T12:48:00;17.83;78.92
77592;DHT22;66891;46.884;17.436;2023-06-14T12:50:29;17.90;79.37
77592;DHT22;66891;46.884;17.436;2023-06-14T12:52:59;17.92;79.67
77592;DHT22;66891;46.884;17.436;2023-06-14T12:55:26;18.06;79.71
77592;DHT22;66891;46.884;17.436;2023-06-14T12:57:55;18.03;79.75
77592;DHT22;66891;46.884;17.436;2023-06-14T13:00:23;17.87;79.70
77592;DHT22;66891;46.884;17.436;2023-06-14T13:02:52;17.97;80.26
77592;DHT22;66891;46.884;17.436;2023-06-14T13:05:20;18.18;78.95
77592;DHT22;66891;46.884;17.436;2023-06-14T13:07:49;18.27;78.20
77592;DHT22;66891;46.884;17.436;2023-06-14T13:10:17;18.24;77.80
77592;DHT22;66891;46.884;17.436;2023-06-14T13:12:45;18.59;77.59
77592;DHT22;66891;46.884;17.436;2023-06-14T13:15:12;18.73;76.06
77592;DHT22;66891;46.884;17.436;2023-06-14T13:17:40;18.91;76.77
77592;DHT22;66891;46.884;17.436;2023-06-14T13:20:10;19.24;75.86
77592;DHT22;66891;46.884;17.436;2023-06-14T13:22:37;19.60;74.87
77592;DHT22;66891;46.884;17.436;2023-06-14T13:25:09;19.71;73.30
77592;DHT22;66891;46.884;17.436;2023-06-14T13:27:36;20.26;71.52
77592;DHT22;66891;46.884;17.436;2023-06-14T13:30:05;20.32;72.28
77592;DHT22;66891;46.884;17.436;2023-06-14T13:32:32;20.67;70.33
77592;DHT22;66891;46.884;17.436;2023-06-14T13:35:00;21.21;68.57
77592;DHT22;66891;46.884;17.436;2023-06-14T13:37:28;21.35;67.34
77592;DHT22;66891;46.884;17.436;2023-06-14T13:39:55;21.61;68.00
77592;DHT22;66891;46.884;17.436;2023-06-14T13:42:24;21.78;65.56
77592;DHT22;66891;46.884;17.436;2023-06-14T13:44:54;21.77;64.88
77592;DHT22;66891;46.884;17.436;2023-06-14T13:47:23;21.93;65.82
77592;DHT22;66891;46.884;17.436;2023-06-14T13:49:51;22.01;64.48
77592;DHT22;66891;46.884;17.436;2023-06-14T13:52:18;22.01;63.50
77592;DHT22;66891;46.884;17.436;2023-06-14T13:54:46;22.01;62.68
77592;DHT22;66891;46.884;17.436;2023-06-14T13:57:15;22.39;61.59
77592;DHT22;66891;46.884;17.436;2023-06-14T13:59:44;22.18;60.97
77592;DHT22;66891;46.884;17.436;2023-06-14T14:02:12;22.07;62.96
77592;DHT22;66891;46.884;17.436;2023-06-14T14:04:40;22.09;62.77
77592;DHT22;66891;46.884;17.436;2023-06-14T14:07:08;22.09;61.86
77592;DHT22;66891;46.884;17.436;2023-06-14T14:09:35;22.08;60.68
77592;DHT22;66891;46.884;17.436;2023-06-14T14:12:04;22.18;60.92
77592;DHT22;66891;46.884;17.436;2023-06-14T14:14:32;22.15;61.16
77592;DHT22;66891;46.884;17.436;2023-06-14T14:17:01;22.12;60.73
77592;DHT22;66891;46.884;17.436;2023-06-14T14:19:28;22.09;57.92
77592;DHT22;66891;46.884;17.436;2023-06-14T14:21:55;21.90;57.58
77592;DHT22;66891;46.884;17.436;2023-06-14T14:24:23;21.81;60.64
77592;DHT22;66891;46.884;17.436;2023-06-14T14:26:52;21.98;59.97
77592;DHT22;66891;46.884;17.436;2023-06-14T14:29:20;22.01;61.07
77592;DHT22;66891;46.884;17.436;2023-06-14T14:31:51;22.05;60.90
77592;DHT22;66891;46.884;17.436;2023-06-14T14:34:19;22.01;57.56
77592;DHT22;66891;46.884;17.436;2023-06-14T14:36:47;22.05;59.95
77592;DHT22;66891;46.884;17.436;2023-06-14T14:39:16;22.07;60.45
77592;DHT22;66891;46.884;17.436;2023-06-14T14:41:44;22.08;58.80
77592;DHT22;66891;46.884;17.436;2023-06-14T14:44:11;21.81;58.62
77592;DHT22;66891;46.884;17.436;2023-06-14T14:46:38;21.90;57.84
77592;DHT22;66891;46.884;17.436;2023-06-14T14:49:06;22.01;56.93
77592;DHT22;66891;46.884;17.436;2023-06-14T14:51:34;22.17;59.28
77592;DHT22;66891;46.884;17.436;2023-06-14T14:54:02;22.25;59.01
77592;DHT22;66891;46.884;17.436;2023-06-14T14:56:29;22.24;59.60
77592;DHT22;66891;46.884;17.436;2023-06-14T14:58:57;22.31;59.99
77592;DHT22;66891;46.884;17.436;2023-06-14T15:01:24;22.11;59.75
77592;DHT22;66891;46.884;17.436;2023-06-14T15:03:52;22.31;57.79
77592;DHT22;66891;46.884;17.436;2023-06-14T15:06:25;22.26;56.58
77592;DHT22;66891;46.884;17.436;2023-06-14T15:08:54;22.41;54.89
77592;DHT22;66891;46.884;17.436;2023-06-14T15:11:21;22.35;54.75
77592;DHT22;66891;46.884;17.436;2023-06-14T15:13:49;22.35;55.17
77592;DHT22;66891;46.884;17.436;2023-06-14T15:16:16;22.34;52.00
77592;DHT22;66891;46.884;17.436;2023-06-14T15:18:43;22.51;52.47
77592;DHT22;66891;46.884;17.436;2023-06-14T15:21:11;22.48;52.66
77592;DHT22;66891;46.884;17.436;2023-06-14T15:23:38;22.55;53.21
77592;DHT22;66891;46.884;17.436;2023-06-14T15:26:07;22.70;52.39
77592;DHT22;66891;46.884;17.436;2023-06-14T15:28:34;22.84;55.12
77592;DHT22;66891;46.884;17.436;2023-06-14T15:31:02;22.90;54.91
77592;DHT22;66891;46.884;17.436;2023-06-14T15:33:29;22.83;54.05
77592;DHT22;66891;46.884;17.436;2023-06-14T15:35:56;22.76;54.40
77592;DHT22;66891;46.884;17.436;2023-06-14T15:38:24;22.77;53.34